KCAO

Details ICAO KCAO
Name CLAYTON MUNI AIRPARK
Region United States
Timezone America/Denver (UTC-6.0)
Plans Departing 4
Arriving 4
Stats Elevation 4,965 ft / 1,513 m (AMSL)
Location 36.446126° -103.149282°
Runways 2
Magnetic Variation 6.958° E
Sunrise 2018-05-21 11:42:52 UTC / 2018-05-21 05:42:52 Local
Sunset 2018-05-22 01:58:24 UTC / 2018-05-21 19:58:24 Local
Advertisement - Login to hide

Runways

ID Width Length Bearing (true) Bearing (mag) Surface Threshold Offset Overrun Length
02 75 ft / 23 m 6,308 ft / 1,923 m 30.11° 23.15° Asphalt 0 ft / 0 m 0 ft / 0 m
12 60 ft / 18 m 4,098 ft / 1,249 m 130.33° 123.37° Asphalt 0 ft / 0 m 0 ft / 0 m
20 75 ft / 23 m 6,308 ft / 1,923 m 210.12° 203.16° Asphalt 0 ft / 0 m 0 ft / 0 m
30 60 ft / 18 m 4,098 ft / 1,249 m 310.34° 303.38° Asphalt 0 ft / 0 m 0 ft / 0 m

Map

Weather


0- 5 10 15 20 25 30 35+ Temperature / ° C

Clouds and Precipitation
Forecast for 2018-05-21 18:00 UTC. Updated 6 hours ago

Ground ~20,000 ft ~40,000 ft Winds

METAR

KCAO 212255Z AUTO 18023G29KT 10SM FEW060 24/10 A3003 RMK AO2 PK WND 19029/2246 SLP118 T02440100

TAF

Not found

Frequencies

Recorded 120.62 MHz ASOS
Unicom 122.80 MHz CTAF/UNICOM
Warning: Do not use this data for real-world aviation or navigation. No guarantee of current accuracy is given.